sensor_id;sensor_type;location;lat;lon;timestamp;pressure;altitude;pressure_sealevel;temperature
20733;BMP180;10527;52.124;5.196;2023-11-21T00:02:08;100923.00;;;19.60
20733;BMP180;10527;52.124;5.196;2023-11-21T00:04:35;100918.00;;;19.60
20733;BMP180;10527;52.124;5.196;2023-11-21T00:07:03;100925.00;;;19.60
20733;BMP180;10527;52.124;5.196;2023-11-21T00:09:30;100921.00;;;19.60
20733;BMP180;10527;52.124;5.196;2023-11-21T00:11:58;100930.00;;;19.50
20733;BMP180;10527;52.124;5.196;2023-11-21T00:14:29;100932.00;;;19.50
20733;BMP180;10527;52.124;5.196;2023-11-21T00:16:57;100931.00;;;19.50
20733;BMP180;10527;52.124;5.196;2023-11-21T00:19:24;100939.00;;;19.50
20733;BMP180;10527;52.124;5.196;2023-11-21T00:21:51;100939.00;;;19.40
20733;BMP180;10527;52.124;5.196;2023-11-21T00:24:19;100937.00;;;19.40
20733;BMP180;10527;52.124;5.196;2023-11-21T00:26:46;100933.00;;;19.40
20733;BMP180;10527;52.124;5.196;2023-11-21T00:29:15;100937.00;;;19.40
20733;BMP180;10527;52.124;5.196;2023-11-21T00:31:45;100937.00;;;19.40
20733;BMP180;10527;52.124;5.196;2023-11-21T00:34:12;100936.00;;;19.40
20733;BMP180;10527;52.124;5.196;2023-11-21T00:36:40;100931.00;;;19.30
20733;BMP180;10527;52.124;5.196;2023-11-21T00:39:08;100927.00;;;19.30
20733;BMP180;10527;52.124;5.196;2023-11-21T00:41:35;100945.00;;;19.30
20733;BMP180;10527;52.124;5.196;2023-11-21T00:44:04;100936.00;;;19.30
20733;BMP180;10527;52.124;5.196;2023-11-21T00:46:32;100936.00;;;19.30
20733;BMP180;10527;52.124;5.196;2023-11-21T00:48:59;100939.00;;;19.30
20733;BMP180;10527;52.124;5.196;2023-11-21T00:51:27;100946.00;;;19.20
20733;BMP180;10527;52.124;5.196;2023-11-21T00:53:54;100954.00;;;19.20
20733;BMP180;10527;52.124;5.196;2023-11-21T00:56:23;100951.00;;;19.20
20733;BMP180;10527;52.124;5.196;2023-11-21T00:58:51;100960.00;;;19.20
20733;BMP180;10527;52.124;5.196;2023-11-21T01:01:20;100957.00;;;19.20
20733;BMP180;10527;52.124;5.196;2023-11-21T01:03:49;100964.00;;;19.20
20733;BMP180;10527;52.124;5.196;2023-11-21T01:06:16;100957.00;;;19.20
20733;BMP180;10527;52.124;5.196;2023-11-21T01:08:44;100955.00;;;19.20
20733;BMP180;10527;52.124;5.196;2023-11-21T01:11:12;100966.00;;;19.10
20733;BMP180;10527;52.124;5.196;2023-11-21T01:13:40;100971.00;;;19.10
20733;BMP180;10527;52.124;5.196;2023-11-21T01:16:08;100972.00;;;19.10
20733;BMP180;10527;52.124;5.196;2023-11-21T01:18:36;100975.00;;;19.10
20733;BMP180;10527;52.124;5.196;2023-11-21T01:21:04;100965.00;;;19.10
20733;BMP180;10527;52.124;5.196;2023-11-21T01:23:32;100968.00;;;19.10
20733;BMP180;10527;52.124;5.196;2023-11-21T01:25:59;100968.00;;;19.10
20733;BMP180;10527;52.124;5.196;2023-11-21T01:28:26;100976.00;;;19.10
20733;BMP180;10527;52.124;5.196;2023-11-21T01:30:55;100967.00;;;19.00
20733;BMP180;10527;52.124;5.196;2023-11-21T01:33:23;100970.00;;;19.10
20733;BMP180;10527;52.124;5.196;2023-11-21T01:35:53;100974.00;;;19.10
20733;BMP180;10527;52.124;5.196;2023-11-21T01:38:22;100974.00;;;19.00
20733;BMP180;10527;52.124;5.196;2023-11-21T01:40:50;100974.00;;;19.00
20733;BMP180;10527;52.124;5.196;2023-11-21T01:43:18;100977.00;;;19.00
20733;BMP180;10527;52.124;5.196;2023-11-21T01:45:46;100977.00;;;19.00
20733;BMP180;10527;52.124;5.196;2023-11-21T01:48:14;100984.00;;;19.00
20733;BMP180;10527;52.124;5.196;2023-11-21T01:50:42;100994.00;;;19.10
20733;BMP180;10527;52.124;5.196;2023-11-21T01:53:10;100992.00;;;19.10
20733;BMP180;10527;52.124;5.196;2023-11-21T01:55:38;100992.00;;;19.10
20733;BMP180;10527;52.124;5.196;2023-11-21T01:58:07;101000.00;;;19.10
20733;BMP180;10527;52.124;5.196;2023-11-21T02:00:34;101004.00;;;19.10
20733;BMP180;10527;52.124;5.196;2023-11-21T02:03:02;101006.00;;;19.10
20733;BMP180;10527;52.124;5.196;2023-11-21T02:05:30;101018.00;;;19.10
20733;BMP180;10527;52.124;5.196;2023-11-21T02:07:59;101019.00;;;19.20
20733;BMP180;10527;52.124;5.196;2023-11-21T02:10:28;101018.00;;;19.10
20733;BMP180;10527;52.124;5.196;2023-11-21T02:12:56;101018.00;;;19.20
20733;BMP180;10527;52.124;5.196;2023-11-21T02:15:25;101025.00;;;19.20
20733;BMP180;10527;52.124;5.196;2023-11-21T02:17:56;101020.00;;;19.20
20733;BMP180;10527;52.124;5.196;2023-11-21T02:20:26;101026.00;;;19.20
20733;BMP180;10527;52.124;5.196;2023-11-21T02:22:56;101033.00;;;19.20
20733;BMP180;10527;52.124;5.196;2023-11-21T02:25:32;101028.00;;;19.20
20733;BMP180;10527;52.124;5.196;2023-11-21T02:28:02;101024.00;;;19.20
20733;BMP180;10527;52.124;5.196;2023-11-21T02:30:32;101030.00;;;19.20
20733;BMP180;10527;52.124;5.196;2023-11-21T02:33:01;101033.00;;;19.20
20733;BMP180;10527;52.124;5.196;2023-11-21T02:35:30;101031.00;;;19.20
20733;BMP180;10527;52.124;5.196;2023-11-21T02:37:59;101034.00;;;19.30
20733;BMP180;10527;52.124;5.196;2023-11-21T02:40:26;101033.00;;;19.30
20733;BMP180;10527;52.124;5.196;2023-11-21T02:42:55;101040.00;;;19.30
20733;BMP180;10527;52.124;5.196;2023-11-21T02:45:23;101032.00;;;19.30
20733;BMP180;10527;52.124;5.196;2023-11-21T02:47:53;101037.00;;;19.40
20733;BMP180;10527;52.124;5.196;2023-11-21T02:50:26;101036.00;;;19.40
20733;BMP180;10527;52.124;5.196;2023-11-21T02:52:55;101040.00;;;19.40
20733;BMP180;10527;52.124;5.196;2023-11-21T02:55:24;101034.00;;;19.40
20733;BMP180;10527;52.124;5.196;2023-11-21T02:57:52;101033.00;;;19.50
20733;BMP180;10527;52.124;5.196;2023-11-21T03:00:19;101037.00;;;19.50
20733;BMP180;10527;52.124;5.196;2023-11-21T03:02:50;101043.00;;;19.50
20733;BMP180;10527;52.124;5.196;2023-11-21T03:05:17;101033.00;;;19.60
20733;BMP180;10527;52.124;5.196;2023-11-21T03:07:45;101033.00;;;19.60
20733;BMP180;10527;52.124;5.196;2023-11-21T03:10:12;101038.00;;;19.60
20733;BMP180;10527;52.124;5.196;2023-11-21T03:12:40;101030.00;;;19.60
20733;BMP180;10527;52.124;5.196;2023-11-21T03:15:09;101037.00;;;19.60
20733;BMP180;10527;52.124;5.196;2023-11-21T03:17:37;101029.00;;;19.60
20733;BMP180;10527;52.124;5.196;2023-11-21T03:20:05;101037.00;;;19.60
20733;BMP180;10527;52.124;5.196;2023-11-21T03:22:33;101041.00;;;19.60
20733;BMP180;10527;52.124;5.196;2023-11-21T03:25:01;101040.00;;;19.70
20733;BMP180;10527;52.124;5.196;2023-11-21T03:27:28;101035.00;;;19.70
20733;BMP180;10527;52.124;5.196;2023-11-21T03:29:55;101041.00;;;19.70
20733;BMP180;10527;52.124;5.196;2023-11-21T03:32:23;101043.00;;;19.70
20733;BMP180;10527;52.124;5.196;2023-11-21T03:34:58;101038.00;;;19.70
20733;BMP180;10527;52.124;5.196;2023-11-21T03:37:26;101044.00;;;19.70
20733;BMP180;10527;52.124;5.196;2023-11-21T03:39:58;101050.00;;;19.70
20733;BMP180;10527;52.124;5.196;2023-11-21T03:42:26;101053.00;;;19.70
20733;BMP180;10527;52.124;5.196;2023-11-21T03:44:54;101055.00;;;19.70
20733;BMP180;10527;52.124;5.196;2023-11-21T03:47:21;101057.00;;;19.70
20733;BMP180;10527;52.124;5.196;2023-11-21T03:49:49;101053.00;;;19.70
20733;BMP180;10527;52.124;5.196;2023-11-21T03:52:17;101053.00;;;19.70
20733;BMP180;10527;52.124;5.196;2023-11-21T03:54:45;101056.00;;;19.70
20733;BMP180;10527;52.124;5.196;2023-11-21T03:57:13;101064.00;;;19.70
20733;BMP180;10527;52.124;5.196;2023-11-21T03:59:41;101065.00;;;19.70
20733;BMP180;10527;52.124;5.196;2023-11-21T04:02:09;101072.00;;;19.70
20733;BMP180;10527;52.124;5.196;2023-11-21T04:04:36;101070.00;;;19.70
20733;BMP180;10527;52.124;5.196;2023-11-21T04:07:04;101071.00;;;19.70
20733;BMP180;10527;52.124;5.196;2023-11-21T04:09:32;101078.00;;;19.70
20733;BMP180;10527;52.124;5.196;2023-11-21T04:11:59;101082.00;;;19.70
20733;BMP180;10527;52.124;5.196;2023-11-21T04:14:27;101076.00;;;19.70
20733;BMP180;10527;52.124;5.196;2023-11-21T04:16:54;101103.00;;;19.80
20733;BMP180;10527;52.124;5.196;2023-11-21T04:19:23;101090.00;;;19.80
20733;BMP180;10527;52.124;5.196;2023-11-21T04:21:50;101087.00;;;19.80
20733;BMP180;10527;52.124;5.196;2023-11-21T04:24:18;101088.00;;;19.80
20733;BMP180;10527;52.124;5.196;2023-11-21T04:26:46;101100.00;;;19.80
20733;BMP180;10527;52.124;5.196;2023-11-21T04:29:13;101107.00;;;19.90
20733;BMP180;10527;52.124;5.196;2023-11-21T04:31:41;101112.00;;;19.90
20733;BMP180;10527;52.124;5.196;2023-11-21T04:34:09;101115.00;;;19.80
20733;BMP180;10527;52.124;5.196;2023-11-21T04:36:37;101127.00;;;19.80
20733;BMP180;10527;52.124;5.196;2023-11-21T04:39:05;101129.00;;;19.80
20733;BMP180;10527;52.124;5.196;2023-11-21T04:41:33;101128.00;;;19.90
20733;BMP180;10527;52.124;5.196;2023-11-21T04:44:02;101125.00;;;19.90
20733;BMP180;10527;52.124;5.196;2023-11-21T04:46:30;101129.00;;;19.90
20733;BMP180;10527;52.124;5.196;2023-11-21T04:48:57;101122.00;;;19.90
20733;BMP180;10527;52.124;5.196;2023-11-21T04:51:28;101128.00;;;19.90
20733;BMP180;10527;52.124;5.196;2023-11-21T04:53:57;101129.00;;;19.90
20733;BMP180;10527;52.124;5.196;2023-11-21T04:56:33;101126.00;;;19.90
20733;BMP180;10527;52.124;5.196;2023-11-21T04:59:01;101131.00;;;19.90
20733;BMP180;10527;52.124;5.196;2023-11-21T05:01:32;101124.00;;;19.90
20733;BMP180;10527;52.124;5.196;2023-11-21T05:04:00;101136.00;;;19.90
20733;BMP180;10527;52.124;5.196;2023-11-21T05:06:28;101134.00;;;19.90
20733;BMP180;10527;52.124;5.196;2023-11-21T05:08:57;101138.00;;;19.90
20733;BMP180;10527;52.124;5.196;2023-11-21T05:11:28;101151.00;;;19.90
20733;BMP180;10527;52.124;5.196;2023-11-21T05:13:56;101148.00;;;19.90
20733;BMP180;10527;52.124;5.196;2023-11-21T05:16:26;101147.00;;;19.90
20733;BMP180;10527;52.124;5.196;2023-11-21T05:18:57;101146.00;;;19.90
20733;BMP180;10527;52.124;5.196;2023-11-21T05:21:28;101149.00;;;19.90
20733;BMP180;10527;52.124;5.196;2023-11-21T05:24:00;101154.00;;;20.00
20733;BMP180;10527;52.124;5.196;2023-11-21T05:26:27;101163.00;;;20.00
20733;BMP180;10527;52.124;5.196;2023-11-21T05:28:55;101160.00;;;20.00
20733;BMP180;10527;52.124;5.196;2023-11-21T05:31:24;101159.00;;;20.00
20733;BMP180;10527;52.124;5.196;2023-11-21T05:33:51;101164.00;;;20.00
20733;BMP180;10527;52.124;5.196;2023-11-21T05:36:18;101161.00;;;20.00
20733;BMP180;10527;52.124;5.196;2023-11-21T05:38:46;101167.00;;;19.90
20733;BMP180;10527;52.124;5.196;2023-11-21T05:41:14;101171.00;;;19.90
20733;BMP180;10527;52.124;5.196;2023-11-21T05:43:45;101173.00;;;20.00
20733;BMP180;10527;52.124;5.196;2023-11-21T05:46:12;101172.00;;;20.00
20733;BMP180;10527;52.124;5.196;2023-11-21T05:48:40;101181.00;;;20.00
20733;BMP180;10527;52.124;5.196;2023-11-21T05:51:08;101186.00;;;20.00
20733;BMP180;10527;52.124;5.196;2023-11-21T05:53:39;101192.00;;;20.00
20733;BMP180;10527;52.124;5.196;2023-11-21T05:56:07;101191.00;;;20.00
20733;BMP180;10527;52.124;5.196;2023-11-21T05:58:35;101202.00;;;20.00
20733;BMP180;10527;52.124;5.196;2023-11-21T06:01:06;101204.00;;;20.00
20733;BMP180;10527;52.124;5.196;2023-11-21T06:03:37;101204.00;;;20.00
20733;BMP180;10527;52.124;5.196;2023-11-21T06:06:04;101211.00;;;20.00
20733;BMP180;10527;52.124;5.196;2023-11-21T06:08:34;101208.00;;;20.10
20733;BMP180;10527;52.124;5.196;2023-11-21T06:11:01;101218.00;;;20.10
20733;BMP180;10527;52.124;5.196;2023-11-21T06:13:29;101221.00;;;20.10
20733;BMP180;10527;52.124;5.196;2023-11-21T06:15:57;101233.00;;;20.10
20733;BMP180;10527;52.124;5.196;2023-11-21T06:18:25;101227.00;;;20.10
20733;BMP180;10527;52.124;5.196;2023-11-21T06:20:57;101228.00;;;20.10
20733;BMP180;10527;52.124;5.196;2023-11-21T06:23:30;101236.00;;;20.10
20733;BMP180;10527;52.124;5.196;2023-11-21T06:26:15;101231.00;;;20.20
20733;BMP180;10527;52.124;5.196;2023-11-21T06:28:43;101238.00;;;20.10
20733;BMP180;10527;52.124;5.196;2023-11-21T06:31:11;101239.00;;;20.20
20733;BMP180;10527;52.124;5.196;2023-11-21T06:33:39;101233.00;;;20.20
20733;BMP180;10527;52.124;5.196;2023-11-21T06:36:07;101238.00;;;20.20
20733;BMP180;10527;52.124;5.196;2023-11-21T06:38:35;101242.00;;;20.20
20733;BMP180;10527;52.124;5.196;2023-11-21T06:41:02;101253.00;;;20.30
20733;BMP180;10527;52.124;5.196;2023-11-21T06:43:31;101249.00;;;20.30
20733;BMP180;10527;52.124;5.196;2023-11-21T06:45:59;101257.00;;;20.30
20733;BMP180;10527;52.124;5.196;2023-11-21T06:48:26;101247.00;;;20.30
20733;BMP180;10527;52.124;5.196;2023-11-21T06:50:54;101254.00;;;20.30
20733;BMP180;10527;52.124;5.196;2023-11-21T06:53:21;101262.00;;;20.30
20733;BMP180;10527;52.124;5.196;2023-11-21T06:55:48;101260.00;;;20.30
20733;BMP180;10527;52.124;5.196;2023-11-21T06:58:16;101267.00;;;20.40
20733;BMP180;10527;52.124;5.196;2023-11-21T07:00:43;101272.00;;;20.40
20733;BMP180;10527;52.124;5.196;2023-11-21T07:03:14;101275.00;;;20.50
20733;BMP180;10527;52.124;5.196;2023-11-21T07:05:42;101284.00;;;20.50
20733;BMP180;10527;52.124;5.196;2023-11-21T07:08:09;101283.00;;;20.50
20733;BMP180;10527;52.124;5.196;2023-11-21T07:10:37;101290.00;;;20.50
20733;BMP180;10527;52.124;5.196;2023-11-21T07:13:05;101294.00;;;20.50
20733;BMP180;10527;52.124;5.196;2023-11-21T07:15:32;101297.00;;;20.50
20733;BMP180;10527;52.124;5.196;2023-11-21T07:18:00;101298.00;;;20.60
20733;BMP180;10527;52.124;5.196;2023-11-21T07:20:30;101298.00;;;20.60
20733;BMP180;10527;52.124;5.196;2023-11-21T07:22:58;101292.00;;;20.60
20733;BMP180;10527;52.124;5.196;2023-11-21T07:25:26;101301.00;;;20.60
20733;BMP180;10527;52.124;5.196;2023-11-21T07:27:54;101297.00;;;20.70
20733;BMP180;10527;52.124;5.196;2023-11-21T07:30:22;101299.00;;;20.70
20733;BMP180;10527;52.124;5.196;2023-11-21T07:32:52;101312.00;;;20.70
20733;BMP180;10527;52.124;5.196;2023-11-21T07:35:19;101306.00;;;20.70
20733;BMP180;10527;52.124;5.196;2023-11-21T07:37:49;101302.00;;;20.70
20733;BMP180;10527;52.124;5.196;2023-11-21T07:40:16;101306.00;;;20.70
20733;BMP180;10527;52.124;5.196;2023-11-21T07:42:44;101322.00;;;20.80
20733;BMP180;10527;52.124;5.196;2023-11-21T07:45:11;101326.00;;;20.80
20733;BMP180;10527;52.124;5.196;2023-11-21T07:47:42;101328.00;;;20.80
20733;BMP180;10527;52.124;5.196;2023-11-21T07:50:13;101324.00;;;20.80
20733;BMP180;10527;52.124;5.196;2023-11-21T07:52:44;101327.00;;;20.80
20733;BMP180;10527;52.124;5.196;2023-11-21T07:55:12;101322.00;;;20.90
20733;BMP180;10527;52.124;5.196;2023-11-21T07:57:39;101333.00;;;20.90
20733;BMP180;10527;52.124;5.196;2023-11-21T08:00:07;101339.00;;;20.90
20733;BMP180;10527;52.124;5.196;2023-11-21T08:02:37;101344.00;;;20.90
20733;BMP180;10527;52.124;5.196;2023-11-21T08:05:05;101359.00;;;21.00
20733;BMP180;10527;52.124;5.196;2023-11-21T08:07:37;101362.00;;;21.00
20733;BMP180;10527;52.124;5.196;2023-11-21T08:10:05;101359.00;;;21.00
20733;BMP180;10527;52.124;5.196;2023-11-21T08:12:33;101361.00;;;21.00
20733;BMP180;10527;52.124;5.196;2023-11-21T08:15:01;101364.00;;;21.00
20733;BMP180;10527;52.124;5.196;2023-11-21T08:17:30;101380.00;;;21.00
20733;BMP180;10527;52.124;5.196;2023-11-21T08:19:59;101377.00;;;21.00
20733;BMP180;10527;52.124;5.196;2023-11-21T08:22:26;101392.00;;;21.00
20733;BMP180;10527;52.124;5.196;2023-11-21T08:24:54;101398.00;;;21.10
20733;BMP180;10527;52.124;5.196;2023-11-21T08:27:23;101407.00;;;21.10
20733;BMP180;10527;52.124;5.196;2023-11-21T08:29:50;101413.00;;;21.10
20733;BMP180;10527;52.124;5.196;2023-11-21T08:32:19;101410.00;;;21.10
20733;BMP180;10527;52.124;5.196;2023-11-21T08:34:47;101414.00;;;21.10
20733;BMP180;10527;52.124;5.196;2023-11-21T08:37:19;101417.00;;;21.10
20733;BMP180;10527;52.124;5.196;2023-11-21T08:39:48;101415.00;;;21.20
20733;BMP180;10527;52.124;5.196;2023-11-21T08:42:16;101416.00;;;21.20
20733;BMP180;10527;52.124;5.196;2023-11-21T08:44:43;101414.00;;;21.20
20733;BMP180;10527;52.124;5.196;2023-11-21T08:47:11;101423.00;;;21.20
20733;BMP180;10527;52.124;5.196;2023-11-21T08:49:39;101422.00;;;21.20
20733;BMP180;10527;52.124;5.196;2023-11-21T08:52:07;101425.00;;;21.20
20733;BMP180;10527;52.124;5.196;2023-11-21T08:54:40;101434.00;;;21.30
20733;BMP180;10527;52.124;5.196;2023-11-21T08:57:09;101443.00;;;21.30
20733;BMP180;10527;52.124;5.196;2023-11-21T08:59:37;101435.00;;;21.30
20733;BMP180;10527;52.124;5.196;2023-11-21T09:02:04;101444.00;;;21.30
20733;BMP180;10527;52.124;5.196;2023-11-21T09:04:32;101451.00;;;21.40
20733;BMP180;10527;52.124;5.196;2023-11-21T09:07:00;101454.00;;;21.40
20733;BMP180;10527;52.124;5.196;2023-11-21T09:09:27;101468.00;;;21.40
20733;BMP180;10527;52.124;5.196;2023-11-21T09:11:56;101466.00;;;21.50
20733;BMP180;10527;52.124;5.196;2023-11-21T09:14:23;101473.00;;;21.40
20733;BMP180;10527;52.124;5.196;2023-11-21T09:16:51;101471.00;;;21.50
20733;BMP180;10527;52.124;5.196;2023-11-21T09:19:18;101477.00;;;21.50
20733;BMP180;10527;52.124;5.196;2023-11-21T09:21:46;101481.00;;;21.50
20733;BMP180;10527;52.124;5.196;2023-11-21T09:24:13;101481.00;;;21.50
20733;BMP180;10527;52.124;5.196;2023-11-21T09:26:41;101491.00;;;21.50
20733;BMP180;10527;52.124;5.196;2023-11-21T09:29:08;101496.00;;;21.50
20733;BMP180;10527;52.124;5.196;2023-11-21T09:31:36;101497.00;;;21.50
20733;BMP180;10527;52.124;5.196;2023-11-21T09:34:03;101497.00;;;21.50
20733;BMP180;10527;52.124;5.196;2023-11-21T09:36:30;101503.00;;;21.50
20733;BMP180;10527;52.124;5.196;2023-11-21T09:38:59;101511.00;;;21.50
20733;BMP180;10527;52.124;5.196;2023-11-21T09:41:56;101514.00;;;21.50
20733;BMP180;10527;52.124;5.196;2023-11-21T09:44:32;101525.00;;;21.50
20733;BMP180;10527;52.124;5.196;2023-11-21T09:47:02;101528.00;;;21.50
20733;BMP180;10527;52.124;5.196;2023-11-21T09:49:33;101533.00;;;21.50
20733;BMP180;10527;52.124;5.196;2023-11-21T09:52:02;101540.00;;;21.50
20733;BMP180;10527;52.124;5.196;2023-11-21T09:54:33;101526.00;;;21.50
20733;BMP180;10527;52.124;5.196;2023-11-21T09:57:02;101536.00;;;21.50
20733;BMP180;10527;52.124;5.196;2023-11-21T09:59:31;101542.00;;;21.50
20733;BMP180;10527;52.124;5.196;2023-11-21T10:02:02;101544.00;;;21.50
20733;BMP180;10527;52.124;5.196;2023-11-21T10:04:31;101534.00;;;21.50
20733;BMP180;10527;52.124;5.196;2023-11-21T10:06:59;101554.00;;;21.50
20733;BMP180;10527;52.124;5.196;2023-11-21T10:09:27;101545.00;;;21.50
20733;BMP180;10527;52.124;5.196;2023-11-21T10:11:56;101554.00;;;21.50
20733;BMP180;10527;52.124;5.196;2023-11-21T10:14:26;101552.00;;;21.50
20733;BMP180;10527;52.124;5.196;2023-11-21T10:16:57;101562.00;;;21.50
20733;BMP180;10527;52.124;5.196;2023-11-21T10:19:24;101572.00;;;21.50
20733;BMP180;10527;52.124;5.196;2023-11-21T10:21:53;101573.00;;;21.50
20733;BMP180;10527;52.124;5.196;2023-11-21T10:24:33;101594.00;;;21.50
20733;BMP180;10527;52.124;5.196;2023-11-21T10:27:14;101598.00;;;21.50
20733;BMP180;10527;52.124;5.196;2023-11-21T10:29:43;101594.00;;;21.50
20733;BMP180;10527;52.124;5.196;2023-11-21T10:32:12;101602.00;;;21.50
20733;BMP180;10527;52.124;5.196;2023-11-21T10:34:41;101613.00;;;21.40
20733;BMP180;10527;52.124;5.196;2023-11-21T10:37:12;101617.00;;;21.40
20733;BMP180;10527;52.124;5.196;2023-11-21T10:39:41;101619.00;;;21.40
20733;BMP180;10527;52.124;5.196;2023-11-21T10:42:12;101629.00;;;21.40
20733;BMP180;10527;52.124;5.196;2023-11-21T10:44:42;101625.00;;;21.40
20733;BMP180;10527;52.124;5.196;2023-11-21T10:47:11;101631.00;;;21.40
20733;BMP180;10527;52.124;5.196;2023-11-21T10:49:39;101629.00;;;21.40
20733;BMP180;10527;52.124;5.196;2023-11-21T10:52:08;101631.00;;;21.40
20733;BMP180;10527;52.124;5.196;2023-11-21T10:54:40;101641.00;;;21.40
20733;BMP180;10527;52.124;5.196;2023-11-21T10:57:08;101639.00;;;21.40
20733;BMP180;10527;52.124;5.196;2023-11-21T10:59:36;101651.00;;;21.40
20733;BMP180;10527;52.124;5.196;2023-11-21T11:02:25;101655.00;;;21.40
20733;BMP180;10527;52.124;5.196;2023-11-21T11:05:00;101652.00;;;21.40
20733;BMP180;10527;52.124;5.196;2023-11-21T11:07:30;101654.00;;;21.40
20733;BMP180;10527;52.124;5.196;2023-11-21T11:10:02;101652.00;;;21.40
20733;BMP180;10527;52.124;5.196;2023-11-21T11:12:31;101651.00;;;21.40
20733;BMP180;10527;52.124;5.196;2023-11-21T11:14:59;101663.00;;;21.40
20733;BMP180;10527;52.124;5.196;2023-11-21T11:17:28;101655.00;;;21.40
20733;BMP180;10527;52.124;5.196;2023-11-21T11:19:59;101649.00;;;21.40
20733;BMP180;10527;52.124;5.196;2023-11-21T11:28:14;101661.00;;;21.40
20733;BMP180;10527;52.124;5.196;2023-11-21T11:33:59;101661.00;;;21.40
20733;BMP180;10527;52.124;5.196;2023-11-21T11:37:04;101670.00;;;21.30
20733;BMP180;10527;52.124;5.196;2023-11-21T11:39:41;101676.00;;;21.30
20733;BMP180;10527;52.124;5.196;2023-11-21T11:42:15;101678.00;;;21.30
20733;BMP180;10527;52.124;5.196;2023-11-21T11:44:48;101679.00;;;21.40
20733;BMP180;10527;52.124;5.196;2023-11-21T11:47:23;101681.00;;;21.40
20733;BMP180;10527;52.124;5.196;2023-11-21T11:50:05;101679.00;;;21.40
20733;BMP180;10527;52.124;5.196;2023-11-21T11:52:48;101675.00;;;21.40
20733;BMP180;10527;52.124;5.196;2023-11-21T11:55:23;101682.00;;;21.40
20733;BMP180;10527;52.124;5.196;2023-11-21T11:57:55;101684.00;;;21.50
20733;BMP180;10527;52.124;5.196;2023-11-21T12:03:00;101701.00;;;21.50
20733;BMP180;10527;52.124;5.196;2023-11-21T12:05:32;101702.00;;;21.50
20733;BMP180;10527;52.124;5.196;2023-11-21T12:08:03;101702.00;;;21.40
20733;BMP180;10527;52.124;5.196;2023-11-21T12:10:36;101699.00;;;21.40
20733;BMP180;10527;52.124;5.196;2023-11-21T12:13:07;101700.00;;;21.40
20733;BMP180;10527;52.124;5.196;2023-11-21T12:15:35;101706.00;;;21.50
20733;BMP180;10527;52.124;5.196;2023-11-21T12:18:05;101703.00;;;21.50
20733;BMP180;10527;52.124;5.196;2023-11-21T12:20:33;101702.00;;;21.50
20733;BMP180;10527;52.124;5.196;2023-11-21T12:23:07;101698.00;;;21.40
20733;BMP180;10527;52.124;5.196;2023-11-21T12:25:43;101702.00;;;21.40
20733;BMP180;10527;52.124;5.196;2023-11-21T12:28:11;101714.00;;;21.40
20733;BMP180;10527;52.124;5.196;2023-11-21T12:30:39;101721.00;;;21.40
20733;BMP180;10527;52.124;5.196;2023-11-21T12:33:07;101721.00;;;21.40
20733;BMP180;10527;52.124;5.196;2023-11-21T12:35:38;101734.00;;;21.30
20733;BMP180;10527;52.124;5.196;2023-11-21T12:38:06;101740.00;;;21.30
20733;BMP180;10527;52.124;5.196;2023-11-21T12:40:38;101739.00;;;21.30
20733;BMP180;10527;52.124;5.196;2023-11-21T12:43:07;101740.00;;;21.30
20733;BMP180;10527;52.124;5.196;2023-11-21T12:45:35;101734.00;;;21.30
20733;BMP180;10527;52.124;5.196;2023-11-21T12:48:04;101740.00;;;21.40
20733;BMP180;10527;52.124;5.196;2023-11-21T12:50:37;101742.00;;;21.40
20733;BMP180;10527;52.124;5.196;2023-11-21T12:53:10;101740.00;;;21.50
20733;BMP180;10527;52.124;5.196;2023-11-21T12:55:41;101747.00;;;21.50
20733;BMP180;10527;52.124;5.196;2023-11-21T12:58:11;101761.00;;;21.50
20733;BMP180;10527;52.124;5.196;2023-11-21T13:00:44;101761.00;;;21.60
20733;BMP180;10527;52.124;5.196;2023-11-21T13:03:14;101758.00;;;21.60
20733;BMP180;10527;52.124;5.196;2023-11-21T13:05:51;101763.00;;;21.60
20733;BMP180;10527;52.124;5.196;2023-11-21T13:08:24;101766.00;;;21.60
20733;BMP180;10527;52.124;5.196;2023-11-21T13:10:54;101776.00;;;21.70
20733;BMP180;10527;52.124;5.196;2023-11-21T13:13:25;101765.00;;;21.70
20733;BMP180;10527;52.124;5.196;2023-11-21T13:16:01;101778.00;;;21.70
20733;BMP180;10527;52.124;5.196;2023-11-21T13:18:32;101787.00;;;21.70
20733;BMP180;10527;52.124;5.196;2023-11-21T13:21:04;101779.00;;;21.70
20733;BMP180;10527;52.124;5.196;2023-11-21T13:23:37;101782.00;;;21.70
20733;BMP180;10527;52.124;5.196;2023-11-21T13:26:05;101786.00;;;21.70
20733;BMP180;10527;52.124;5.196;2023-11-21T13:28:35;101793.00;;;21.70
20733;BMP180;10527;52.124;5.196;2023-11-21T13:31:05;101783.00;;;21.70
20733;BMP180;10527;52.124;5.196;2023-11-21T13:33:52;101794.00;;;21.70
20733;BMP180;10527;52.124;5.196;2023-11-21T13:36:24;101795.00;;;21.60
20733;BMP180;10527;52.124;5.196;2023-11-21T13:38:52;101799.00;;;21.60
20733;BMP180;10527;52.124;5.196;2023-11-21T13:41:21;101803.00;;;21.60
20733;BMP180;10527;52.124;5.196;2023-11-21T13:43:55;101814.00;;;21.60
20733;BMP180;10527;52.124;5.196;2023-11-21T13:46:32;101810.00;;;21.60
20733;BMP180;10527;52.124;5.196;2023-11-21T13:49:05;101815.00;;;21.50
20733;BMP180;10527;52.124;5.196;2023-11-21T13:51:40;101814.00;;;21.50
20733;BMP180;10527;52.124;5.196;2023-11-21T13:54:13;101823.00;;;21.50
20733;BMP180;10527;52.124;5.196;2023-11-21T13:56:42;101819.00;;;21.50
20733;BMP180;10527;52.124;5.196;2023-11-21T13:59:12;101824.00;;;21.50
20733;BMP180;10527;52.124;5.196;2023-11-21T14:01:50;101821.00;;;21.50
20733;BMP180;10527;52.124;5.196;2023-11-21T14:04:21;101832.00;;;21.50
20733;BMP180;10527;52.124;5.196;2023-11-21T14:06:58;101827.00;;;21.40
20733;BMP180;10527;52.124;5.196;2023-11-21T14:09:28;101848.00;;;21.40
20733;BMP180;10527;52.124;5.196;2023-11-21T14:12:11;101842.00;;;21.40
20733;BMP180;10527;52.124;5.196;2023-11-21T14:14:40;101838.00;;;21.30
20733;BMP180;10527;52.124;5.196;2023-11-21T14:17:08;101844.00;;;21.30
20733;BMP180;10527;52.124;5.196;2023-11-21T14:19:37;101855.00;;;21.30
20733;BMP180;10527;52.124;5.196;2023-11-21T14:22:11;101852.00;;;21.30